createdAt,value
2022-10-07T00:01:01.969Z,82.13
2022-10-07T00:03:34.213Z,82.02
2022-10-07T00:06:10.322Z,82.41
2022-10-07T00:08:39.043Z,82.60
2022-10-07T00:11:08.864Z,82.70
2022-10-07T00:13:38.775Z,82.61
2022-10-07T00:16:14.446Z,82.83
2022-10-07T00:18:41.817Z,83.30
2022-10-07T00:21:11.465Z,83.88
2022-10-07T00:23:39.395Z,84.44
2022-10-07T00:26:08.451Z,84.36
2022-10-07T00:28:36.550Z,84.48
2022-10-07T00:31:06.872Z,83.96
2022-10-07T00:33:36.956Z,83.47
2022-10-07T00:36:19.789Z,83.44
2022-10-07T00:38:51.610Z,83.89
2022-10-07T00:41:21.858Z,83.86
2022-10-07T00:43:48.702Z,83.65
2022-10-07T00:46:33.487Z,84.40
2022-10-07T00:49:01.873Z,84.53
2022-10-07T00:51:30.959Z,85.24
2022-10-07T00:53:57.975Z,85.75
2022-10-07T00:56:26.495Z,86.18
2022-10-07T00:58:53.560Z,85.78
2022-10-07T01:01:21.436Z,85.43
2022-10-07T01:03:48.900Z,85.64
2022-10-07T01:06:16.022Z,85.75
2022-10-07T01:08:46.658Z,85.91
2022-10-07T01:11:32.455Z,85.76
2022-10-07T01:14:19.377Z,85.71
2022-10-07T01:17:01.629Z,85.67
2022-10-07T01:19:47.157Z,85.48
2022-10-07T01:22:44.835Z,85.31
2022-10-07T01:25:27.835Z,84.89
2022-10-07T01:28:07.082Z,85.23
2022-10-07T01:30:40.868Z,85.48
2022-10-07T01:33:18.439Z,85.45
2022-10-07T01:35:49.251Z,85.22
2022-10-07T01:38:20.057Z,85.04
2022-10-07T01:40:57.182Z,85.37
2022-10-07T01:43:25.219Z,85.58
2022-10-07T01:45:54.568Z,85.48
2022-10-07T01:48:21.611Z,85.44
2022-10-07T01:50:50.589Z,85.65
2022-10-07T01:53:44.645Z,85.73
2022-10-07T01:56:38.251Z,85.76
2022-10-07T01:59:24.299Z,86.78
2022-10-07T02:02:08.134Z,86.70
2022-10-07T02:04:47.218Z,86.83
2022-10-07T02:07:42.531Z,86.43
2022-10-07T02:10:30.807Z,85.55
2022-10-07T02:13:11.828Z,85.13
2022-10-07T02:15:44.716Z,84.60
2022-10-07T02:18:16.421Z,84.38
2022-10-07T02:20:51.296Z,84.79
2022-10-07T02:23:21.215Z,85.02
2022-10-07T02:25:50.526Z,85.74
2022-10-07T02:28:22.584Z,85.50
2022-10-07T02:30:55.099Z,85.54
2022-10-07T02:33:27.175Z,85.44
2022-10-07T02:35:59.258Z,85.28
2022-10-07T02:38:26.867Z,85.22
2022-10-07T02:41:30.914Z,85.20
2022-10-07T02:44:07.077Z,84.71
2022-10-07T02:46:44.900Z,84.48
2022-10-07T02:49:15.164Z,84.56
2022-10-07T02:51:47.803Z,84.92
2022-10-07T02:54:24.156Z,84.93
2022-10-07T02:56:52.788Z,85.01
2022-10-07T02:59:21.723Z,84.52
2022-10-07T03:01:53.471Z,84.68
2022-10-07T03:04:22.241Z,83.88
2022-10-07T03:06:49.182Z,83.37
2022-10-07T03:09:16.312Z,83.69
2022-10-07T03:11:43.062Z,83.62
2022-10-07T03:14:10.379Z,83.66
2022-10-07T03:16:37.197Z,83.53
2022-10-07T03:19:04.067Z,83.35
2022-10-07T03:21:34.327Z,83.58
2022-10-07T03:24:04.170Z,83.54
2022-10-07T03:26:34.936Z,83.95
2022-10-07T03:29:02.202Z,84.02
2022-10-07T03:31:29.510Z,84.00
2022-10-07T03:33:57.879Z,84.03
2022-10-07T03:36:24.758Z,84.43
2022-10-07T03:38:51.681Z,84.94
2022-10-07T03:41:20.226Z,85.96
2022-10-07T03:43:48.845Z,85.99
2022-10-07T03:46:19.104Z,85.66
2022-10-07T03:48:46.246Z,85.57
2022-10-07T03:51:13.769Z,85.32
2022-10-07T03:53:40.823Z,85.48
2022-10-07T03:56:08.279Z,85.48
2022-10-07T03:58:35.793Z,85.94
2022-10-07T04:01:09.247Z,86.31
2022-10-07T04:03:37.072Z,86.28
2022-10-07T04:06:04.269Z,86.98
2022-10-07T04:08:33.683Z,87.46
2022-10-07T04:11:03.251Z,87.43
2022-10-07T04:13:31.125Z,87.55
2022-10-07T04:15:58.125Z,87.91
2022-10-07T04:18:25.831Z,87.90
2022-10-07T04:20:53.162Z,87.68
2022-10-07T04:23:21.287Z,87.29
2022-10-07T04:25:47.998Z,87.08
2022-10-07T04:28:25.710Z,87.07
2022-10-07T04:30:57.963Z,87.07
2022-10-07T04:33:31.046Z,86.53
2022-10-07T04:36:04.881Z,86.36
2022-10-07T04:38:34.801Z,86.06
2022-10-07T04:41:06.252Z,86.16
2022-10-07T04:43:34.413Z,86.31
2022-10-07T04:46:10.921Z,86.02
2022-10-07T04:48:45.219Z,85.89
2022-10-07T04:51:15.379Z,85.58
2022-10-07T04:53:44.371Z,85.26
2022-10-07T04:56:11.260Z,84.77
2022-10-07T04:58:38.264Z,84.27
2022-10-07T05:01:09.278Z,84.50
2022-10-07T05:03:39.529Z,84.70
2022-10-07T05:06:08.396Z,84.72
2022-10-07T05:08:35.874Z,84.60
2022-10-07T05:11:05.370Z,84.55
2022-10-07T05:13:39.846Z,84.27
2022-10-07T05:16:13.800Z,84.20
2022-10-07T05:18:41.489Z,83.96
2022-10-07T05:21:11.443Z,83.74
2022-10-07T05:23:41.514Z,83.26
2022-10-07T05:26:13.898Z,83.05
2022-10-07T05:28:46.027Z,82.79
2022-10-07T05:31:18.827Z,82.59
2022-10-07T05:33:52.780Z,82.83
2022-10-07T05:36:23.496Z,82.89
2022-10-07T05:39:00.615Z,83.06
2022-10-07T06:58:25.008Z,58.09
2022-10-07T07:01:05.421Z,57.47
2022-10-07T07:18:32.077Z,51.15
2022-10-07T10:22:37.157Z,21.27
2022-10-07T10:26:24.221Z,21.13
2022-10-07T10:29:11.662Z,21.82
2022-10-07T10:32:21.043Z,21.14
2022-10-07T10:35:19.531Z,21.50
2022-10-07T10:38:03.288Z,21.41
2022-10-07T10:40:41.861Z,20.19
2022-10-07T10:44:10.080Z,19.81
2022-10-07T10:47:03.706Z,18.80
2022-10-07T10:49:55.119Z,18.54
2022-10-07T10:52:50.024Z,18.37
2022-10-07T10:56:08.471Z,19.13
2022-10-07T10:58:36.159Z,19.73
2022-10-07T11:01:09.549Z,19.90
2022-10-07T11:03:46.814Z,19.86
2022-10-07T11:06:17.696Z,20.19
2022-10-07T11:08:47.122Z,20.59
2022-10-07T11:11:22.873Z,20.42
2022-10-07T11:14:05.419Z,21.04
2022-10-07T11:16:52.501Z,22.46
2022-10-07T11:19:37.532Z,24.02
2022-10-07T11:22:14.384Z,25.91
2022-10-07T11:24:56.379Z,26.79
2022-10-07T11:27:29.832Z,27.93
2022-10-07T11:30:16.574Z,29.68
2022-10-07T11:32:58.946Z,30.69
2022-10-07T11:35:31.607Z,31.43
2022-10-07T11:38:16.823Z,32.72
2022-10-07T11:41:03.004Z,32.69
2022-10-07T11:43:40.096Z,33.74
2022-10-07T11:46:36.368Z,34.75
2022-10-07T11:49:12.283Z,36.59
2022-10-07T11:51:45.341Z,36.85
2022-10-07T11:54:19.953Z,36.59
2022-10-07T11:56:48.940Z,37.01
2022-10-07T11:59:49.602Z,37.79
2022-10-07T12:02:28.807Z,38.63
2022-10-07T12:04:59.235Z,38.96
2022-10-07T12:07:42.584Z,38.77
2022-10-07T12:10:37.801Z,39.32
2022-10-07T12:13:08.944Z,38.28
2022-10-07T12:15:42.059Z,39.49
2022-10-07T12:18:11.776Z,39.92
2022-10-07T12:20:46.049Z,40.67
2022-10-07T12:23:23.030Z,40.07
2022-10-07T12:26:22.246Z,39.33
2022-10-07T12:28:49.396Z,38.61
2022-10-07T12:31:21.416Z,38.10
2022-10-07T12:34:09.808Z,38.20
2022-10-07T12:36:40.888Z,38.87
2022-10-07T12:39:11.223Z,39.43
2022-10-07T12:41:43.438Z,39.59
2022-10-07T12:44:48.563Z,40.20
2022-10-07T12:47:29.405Z,40.77
2022-10-07T12:50:04.306Z,40.80
2022-10-07T12:52:55.037Z,41.60
2022-10-07T12:55:47.928Z,41.64
2022-10-07T12:58:39.661Z,42.83
2022-10-07T13:01:22.920Z,41.87
2022-10-07T13:04:10.040Z,41.27
2022-10-07T13:06:39.020Z,41.87
2022-10-07T13:09:23.392Z,41.98
2022-10-07T13:12:15.256Z,42.63
2022-10-07T13:15:08.630Z,43.80
2022-10-07T13:17:46.502Z,43.39
2022-10-07T13:20:37.435Z,43.10
2022-10-07T13:23:11.624Z,42.95
2022-10-07T13:25:54.107Z,43.09
2022-10-07T13:28:25.316Z,43.46
2022-10-07T13:30:54.154Z,43.95
2022-10-07T13:33:26.437Z,43.77
2022-10-07T13:36:06.163Z,43.88
2022-10-07T13:38:34.594Z,44.05
2022-10-07T13:41:07.562Z,44.11
2022-10-07T13:43:36.786Z,43.50
2022-10-07T13:46:12.736Z,43.71
2022-10-07T13:48:45.570Z,43.98
2022-10-07T13:51:29.072Z,44.30
2022-10-07T13:53:59.179Z,44.50
2022-10-07T13:56:49.575Z,44.64
2022-10-07T13:59:18.491Z,45.10
2022-10-07T14:01:49.134Z,45.63
2022-10-07T14:04:28.028Z,46.06
2022-10-07T14:07:16.780Z,45.01
2022-10-07T14:10:09.839Z,45.13
2022-10-07T14:12:43.498Z,46.20
2022-10-07T14:15:14.519Z,46.98
2022-10-07T14:17:51.160Z,46.88
2022-10-07T14:20:33.419Z,46.97
2022-10-07T14:23:05.734Z,46.44
2022-10-07T14:25:56.832Z,46.51
2022-10-07T14:28:23.686Z,46.82
2022-10-07T14:31:24.456Z,46.54
2022-10-07T14:34:33.385Z,47.24
2022-10-07T14:37:02.967Z,47.32
2022-10-07T14:39:42.924Z,46.96
2022-10-07T14:42:21.347Z,47.39
2022-10-07T14:44:48.745Z,46.76
2022-10-07T14:47:20.789Z,46.85
2022-10-07T14:49:52.164Z,47.83
2022-10-07T14:52:23.828Z,48.41
2022-10-07T14:54:52.207Z,48.09
2022-10-07T14:57:19.025Z,48.49
2022-10-07T14:59:47.229Z,48.63
2022-10-07T15:02:14.314Z,48.57
2022-10-07T15:04:44.707Z,48.48
2022-10-07T15:07:13.227Z,48.86
2022-10-07T15:09:42.745Z,48.91
2022-10-07T15:12:11.234Z,49.03
2022-10-07T15:14:38.132Z,49.49
2022-10-07T15:17:05.664Z,49.74
2022-10-07T15:19:34.142Z,49.77
2022-10-07T15:22:00.933Z,49.50
2022-10-07T15:24:29.642Z,49.93
2022-10-07T15:26:56.378Z,50.20
2022-10-07T15:29:23.431Z,50.36
2022-10-07T15:31:51.760Z,50.36
2022-10-07T15:34:18.637Z,50.81
2022-10-07T15:36:46.230Z,50.91
2022-10-07T15:39:13.358Z,50.98
2022-10-07T15:41:42.938Z,51.30
2022-10-07T15:44:15.482Z,51.62
2022-10-07T15:46:46.877Z,51.60
2022-10-07T15:49:24.033Z,51.97
2022-10-07T15:51:50.755Z,52.06
2022-10-07T15:54:17.699Z,52.49
2022-10-07T15:56:44.720Z,52.67
2022-10-07T15:59:13.194Z,53.12
2022-10-07T16:01:40.347Z,53.28
2022-10-07T16:04:11.085Z,53.41
2022-10-07T16:06:38.246Z,53.44
2022-10-07T16:09:05.758Z,53.76
2022-10-07T16:11:33.793Z,54.18
2022-10-07T16:14:01.483Z,54.73
2022-10-07T16:16:32.803Z,54.69
2022-10-07T16:19:00.583Z,54.89
2022-10-07T16:21:33.154Z,55.23
2022-10-07T16:24:09.921Z,55.82
2022-10-07T16:26:36.996Z,56.50
2022-10-07T16:29:25.256Z,56.73
2022-10-07T16:31:58.270Z,57.69
2022-10-07T16:34:27.770Z,57.89
2022-10-07T16:36:56.586Z,58.10
2022-10-07T16:39:24.016Z,58.48
2022-10-07T16:41:52.051Z,58.18
2022-10-07T16:44:20.552Z,58.11
2022-10-07T16:46:49.132Z,58.65
2022-10-07T16:49:17.661Z,59.00
2022-10-07T16:51:45.509Z,59.45
2022-10-07T16:54:15.430Z,61.87
2022-10-07T16:56:49.378Z,62.68
2022-10-07T16:59:23.500Z,64.06
2022-10-07T17:01:54.893Z,63.87
2022-10-07T17:04:23.858Z,64.62
2022-10-07T17:06:50.853Z,64.14
2022-10-07T17:09:17.935Z,64.64
2022-10-07T17:11:45.379Z,65.07
2022-10-07T17:14:18.643Z,65.06
2022-10-07T17:16:56.031Z,65.52
2022-10-07T17:19:28.329Z,66.20
2022-10-07T17:21:58.028Z,66.25
2022-10-07T17:24:25.418Z,66.68
2022-10-07T17:26:52.803Z,67.13
2022-10-07T17:29:22.305Z,67.20
2022-10-07T17:31:50.232Z,67.30
2022-10-07T17:34:20.177Z,67.37
2022-10-07T17:36:48.168Z,67.49
2022-10-07T17:39:16.689Z,67.81
2022-10-07T17:41:43.715Z,67.91
2022-10-07T17:44:12.326Z,68.23
2022-10-07T17:46:40.399Z,68.69
2022-10-07T17:49:09.449Z,69.08
2022-10-07T17:51:36.837Z,69.06
2022-10-07T17:54:05.654Z,69.48
2022-10-07T17:56:33.987Z,69.53
2022-10-07T17:59:01.800Z,69.83
2022-10-07T18:01:33.414Z,70.21
2022-10-07T18:04:09.833Z,70.60
2022-10-07T18:06:39.022Z,70.82
2022-10-07T18:09:07.590Z,70.60
2022-10-07T18:11:53.408Z,70.60
2022-10-07T18:14:38.798Z,70.34
2022-10-07T18:17:07.228Z,70.72
2022-10-07T18:19:34.279Z,70.85
2022-10-07T18:22:02.503Z,70.87
2022-10-07T18:24:29.370Z,71.28
2022-10-07T18:27:00.521Z,72.01
2022-10-07T18:29:29.526Z,71.66
2022-10-07T18:31:56.813Z,71.52
2022-10-07T18:34:24.407Z,71.65
2022-10-07T18:36:55.905Z,71.63
2022-10-07T18:39:26.730Z,71.85
2022-10-07T18:41:54.049Z,71.56
2022-10-07T18:44:21.538Z,71.90
2022-10-07T18:46:48.363Z,72.12
2022-10-07T18:49:15.759Z,72.42
2022-10-07T18:51:43.095Z,72.54
2022-10-07T18:54:10.231Z,72.97
2022-10-07T18:56:40.753Z,73.39
2022-10-07T18:59:09.416Z,72.92
2022-10-07T19:01:36.911Z,72.86
2022-10-07T19:04:05.052Z,72.82
2022-10-07T19:06:35.243Z,73.08
2022-10-07T19:09:05.973Z,73.61
2022-10-07T19:11:33.344Z,73.68
2022-10-07T19:14:00.662Z,74.33
2022-10-07T19:16:34.023Z,74.44
2022-10-07T19:19:04.743Z,74.54
2022-10-07T19:21:32.844Z,74.91
2022-10-07T19:24:02.840Z,75.29
2022-10-07T19:26:38.672Z,75.24
2022-10-07T19:29:08.694Z,75.78
2022-10-07T19:31:39.778Z,75.73
2022-10-07T19:34:09.432Z,76.21
2022-10-07T19:36:39.599Z,76.38
2022-10-07T19:39:06.981Z,76.94
2022-10-07T19:41:35.095Z,76.70
2022-10-07T19:44:03.244Z,76.44
2022-10-07T19:46:32.854Z,76.43
2022-10-07T19:49:01.650Z,77.09
2022-10-07T19:51:30.632Z,78.05
2022-10-07T19:53:59.644Z,77.47
2022-10-07T19:56:31.089Z,77.84
2022-10-07T19:59:01.033Z,79.15
2022-10-07T20:01:31.612Z,80.24
2022-10-07T20:04:02.207Z,82.12
2022-10-07T20:06:29.116Z,82.32
2022-10-07T20:08:57.710Z,82.18
2022-10-07T20:11:27.187Z,81.38
2022-10-07T20:13:54.623Z,81.29
2022-10-07T20:16:24.029Z,81.34
2022-10-07T20:19:05.045Z,81.64
2022-10-07T20:21:35.183Z,81.81
2022-10-07T20:24:03.532Z,82.07
2022-10-07T20:26:33.501Z,82.04
2022-10-07T20:29:02.398Z,82.44
2022-10-07T20:31:32.583Z,82.76
2022-10-07T20:34:00.972Z,83.22
2022-10-07T20:36:30.033Z,83.17
2022-10-07T20:39:17.591Z,83.28
2022-10-07T20:42:10.299Z,83.35
2022-10-07T20:44:37.520Z,83.56
2022-10-07T20:47:09.212Z,83.39
2022-10-07T20:49:40.818Z,83.03
2022-10-07T20:52:13.661Z,83.02
2022-10-07T20:54:40.559Z,83.12
2022-10-07T20:57:07.468Z,83.47
2022-10-07T20:59:34.282Z,83.50
2022-10-07T21:02:03.007Z,83.46
2022-10-07T21:04:33.368Z,83.56
2022-10-07T21:07:01.176Z,83.84
2022-10-07T21:09:28.382Z,83.65
2022-10-07T21:11:57.795Z,83.24
2022-10-07T21:14:24.781Z,83.05
2022-10-07T21:16:52.711Z,82.85
2022-10-07T21:19:19.433Z,83.03
2022-10-07T21:21:46.742Z,83.05
2022-10-07T21:24:14.013Z,83.06
2022-10-07T21:26:40.952Z,83.34
2022-10-07T21:29:10.357Z,83.44
2022-10-07T21:31:37.167Z,83.47
2022-10-07T21:34:07.275Z,83.38
2022-10-07T21:36:37.370Z,83.26
2022-10-07T21:39:05.029Z,83.42
2022-10-07T21:41:34.389Z,83.37
2022-10-07T21:44:06.629Z,83.29
2022-10-07T21:46:36.019Z,82.51
2022-10-07T21:49:03.635Z,82.35
2022-10-07T21:51:31.684Z,82.33
2022-10-07T21:53:58.555Z,81.89
2022-10-07T21:56:27.781Z,81.80
2022-10-07T21:58:56.669Z,81.78
2022-10-07T22:01:24.892Z,81.62
2022-10-07T22:03:56.893Z,81.35
2022-10-07T22:06:43.945Z,81.80
2022-10-07T22:09:12.719Z,81.90
2022-10-07T22:11:40.175Z,81.33
2022-10-07T22:14:12.117Z,81.32
2022-10-07T22:16:40.297Z,81.46
2022-10-07T22:19:07.537Z,81.47
2022-10-07T22:21:39.259Z,81.55
2022-10-07T22:24:08.101Z,81.23
2022-10-07T22:26:41.517Z,81.11
2022-10-07T22:29:09.850Z,80.90
2022-10-07T22:31:37.501Z,80.94
2022-10-07T22:34:04.852Z,80.89
2022-10-07T22:36:32.077Z,81.06
2022-10-07T22:38:59.718Z,80.93
2022-10-07T22:41:27.081Z,80.95
2022-10-07T22:43:54.565Z,80.96
2022-10-07T22:46:25.745Z,80.91
2022-10-07T22:48:55.760Z,80.65
2022-10-07T22:51:26.391Z,80.79
2022-10-07T22:53:54.793Z,80.49
2022-10-07T22:56:23.625Z,80.45
2022-10-07T22:58:53.832Z,80.53
2022-10-07T23:01:21.605Z,80.65
2022-10-07T23:03:48.882Z,80.80
2022-10-07T23:06:18.718Z,80.95
2022-10-07T23:08:47.354Z,80.92
2022-10-07T23:11:17.665Z,80.69
2022-10-07T23:13:45.586Z,80.34
2022-10-07T23:16:15.351Z,80.16
2022-10-07T23:18:44.689Z,79.93
2022-10-07T23:21:13.408Z,80.31
2022-10-07T23:23:42.484Z,80.63
2022-10-07T23:26:11.894Z,80.35
2022-10-07T23:28:39.413Z,80.91
2022-10-07T23:31:08.278Z,81.43
2022-10-07T23:33:37.597Z,82.05
2022-10-07T23:36:08.405Z,81.58
2022-10-07T23:38:44.219Z,82.27
2022-10-07T23:41:13.379Z,82.38
2022-10-07T23:43:40.300Z,82.36
2022-10-07T23:46:12.701Z,82.51
2022-10-07T23:48:40.667Z,83.02
2022-10-07T23:51:09.903Z,83.32
2022-10-07T23:53:36.838Z,83.62
2022-10-07T23:56:03.678Z,83.61
2022-10-07T23:58:31.487Z,83.16
